createdAt,value
2023-10-06T00:00:41.472Z,100.00
2023-10-06T00:03:15.220Z,98.91
2023-10-06T00:05:44.127Z,99.87
2023-10-06T00:08:13.290Z,100.00
2023-10-06T00:10:45.864Z,100.00
2023-10-06T00:13:20.345Z,100.00
2023-10-06T00:15:51.848Z,100.00
2023-10-06T00:18:21.351Z,100.00
2023-10-06T00:20:51.164Z,100.00
2023-10-06T00:23:23.369Z,100.00
2023-10-06T00:25:54.154Z,100.00
2023-10-06T00:28:23.767Z,100.00
2023-10-06T00:30:57.832Z,100.00
2023-10-06T00:33:35.523Z,100.00
2023-10-06T00:36:12.995Z,100.00
2023-10-06T00:38:44.072Z,100.00
2023-10-06T00:41:15.635Z,100.00
2023-10-06T00:43:48.059Z,100.00
2023-10-06T00:46:21.080Z,100.00
2023-10-06T00:48:55.269Z,100.00
2023-10-06T00:51:27.258Z,100.00
2023-10-06T00:53:58.485Z,100.00
2023-10-06T00:56:29.937Z,100.00
2023-10-06T00:58:59.368Z,100.00
2023-10-06T01:01:29.289Z,100.00
2023-10-06T01:04:03.351Z,100.00
2023-10-06T01:06:37.328Z,100.00
2023-10-06T01:09:14.503Z,100.00
2023-10-06T01:11:47.961Z,100.00
2023-10-06T01:14:23.041Z,100.00
2023-10-06T01:16:54.662Z,100.00
2023-10-06T01:19:28.333Z,100.00
2023-10-06T01:21:57.871Z,100.00
2023-10-06T01:24:28.382Z,100.00
2023-10-06T01:27:00.514Z,100.00
2023-10-06T01:29:32.060Z,100.00
2023-10-06T01:32:06.407Z,100.00
2023-10-06T01:34:39.734Z,100.00
2023-10-06T01:37:09.320Z,100.00
2023-10-06T01:39:40.025Z,100.00
2023-10-06T01:42:15.067Z,100.00
2023-10-06T01:44:43.630Z,100.00
2023-10-06T01:47:13.625Z,100.00
2023-10-06T01:49:45.033Z,100.00
2023-10-06T01:52:20.668Z,100.00
2023-10-06T01:54:50.701Z,100.00
2023-10-06T01:57:19.804Z,100.00
2023-10-06T01:59:50.416Z,100.00
2023-10-06T02:02:37.564Z,100.00
2023-10-06T02:05:24.524Z,100.00
2023-10-06T02:08:16.158Z,100.00
2023-10-06T02:11:05.890Z,100.00
2023-10-06T02:13:53.301Z,100.00
2023-10-06T02:16:40.464Z,100.00
2023-10-06T02:19:30.089Z,100.00
2023-10-06T02:22:19.722Z,100.00
2023-10-06T02:25:14.854Z,100.00
2023-10-06T02:28:07.087Z,100.00
2023-10-06T02:30:56.604Z,100.00
2023-10-06T02:33:49.333Z,100.00
2023-10-06T02:36:37.083Z,100.00
2023-10-06T02:39:28.164Z,100.00
2023-10-06T02:42:20.038Z,100.00
2023-10-06T02:45:09.858Z,100.00
2023-10-06T02:47:59.278Z,100.00
2023-10-06T02:50:51.585Z,100.00
2023-10-06T02:53:38.581Z,100.00
2023-10-06T02:56:30.091Z,100.00
2023-10-06T02:59:26.673Z,100.00
2023-10-06T03:02:17.626Z,100.00
2023-10-06T03:05:14.019Z,100.00
2023-10-06T03:08:03.478Z,100.00
2023-10-06T03:10:51.053Z,100.00
2023-10-06T03:13:44.486Z,100.00
2023-10-06T03:16:13.528Z,100.00
2023-10-06T03:18:45.746Z,100.00
2023-10-06T03:21:17.114Z,100.00
2023-10-06T03:23:48.832Z,100.00
2023-10-06T03:26:26.619Z,100.00
2023-10-06T03:28:59.446Z,100.00
2023-10-06T03:31:36.334Z,100.00
2023-10-06T03:34:08.768Z,100.00
2023-10-06T03:36:47.081Z,100.00
2023-10-06T03:39:23.259Z,100.00
2023-10-06T03:41:54.639Z,100.00
2023-10-06T03:44:27.808Z,100.00
2023-10-06T03:46:58.553Z,100.00
2023-10-06T03:49:28.857Z,100.00
2023-10-06T03:51:58.274Z,100.00
2023-10-06T03:54:26.770Z,100.00
2023-10-06T03:56:55.494Z,100.00
2023-10-06T03:59:25.090Z,100.00
2023-10-06T04:01:54.040Z,100.00
2023-10-06T04:04:23.912Z,100.00
2023-10-06T04:06:55.943Z,100.00
2023-10-06T04:09:29.856Z,100.00
2023-10-06T04:11:59.558Z,100.00
2023-10-06T04:14:32.777Z,100.00
2023-10-06T04:17:03.995Z,100.00
2023-10-06T04:19:35.606Z,100.00
2023-10-06T04:22:05.735Z,99.45
2023-10-06T04:24:34.740Z,99.95
2023-10-06T04:27:03.507Z,99.82
2023-10-06T04:29:36.010Z,100.00
2023-10-06T04:32:05.422Z,99.51
2023-10-06T04:34:38.083Z,99.00
2023-10-06T04:37:09.229Z,99.99
2023-10-06T04:39:40.130Z,99.11
2023-10-06T04:42:09.410Z,100.00
2023-10-06T04:44:37.961Z,99.06
2023-10-06T04:47:10.038Z,99.45
2023-10-06T04:49:38.673Z,99.72
2023-10-06T04:52:08.557Z,100.00
2023-10-06T04:54:37.102Z,99.01
2023-10-06T04:57:05.758Z,100.00
2023-10-06T04:59:34.706Z,100.00
2023-10-06T05:02:06.552Z,100.00
2023-10-06T05:04:36.498Z,100.00
2023-10-06T05:07:07.595Z,100.00
2023-10-06T05:09:40.793Z,99.79
2023-10-06T05:12:11.122Z,100.00
2023-10-06T05:14:40.275Z,99.23
2023-10-06T05:17:09.438Z,99.81
2023-10-06T05:19:37.958Z,99.79
2023-10-06T05:22:07.855Z,100.00
2023-10-06T05:24:36.876Z,100.00
2023-10-06T05:27:07.125Z,99.01
2023-10-06T05:29:37.283Z,98.52
2023-10-06T05:32:06.593Z,97.30
2023-10-06T05:34:36.026Z,97.05
2023-10-06T05:37:04.754Z,98.77
2023-10-06T05:39:35.215Z,98.41
2023-10-06T05:42:04.977Z,97.11
2023-10-06T05:44:33.463Z,98.88
2023-10-06T05:47:02.932Z,99.11
2023-10-06T05:49:33.933Z,97.52
2023-10-06T05:52:04.615Z,97.31
2023-10-06T05:54:34.755Z,97.93
2023-10-06T05:57:03.269Z,98.23
2023-10-06T05:59:35.547Z,97.92
2023-10-06T06:02:05.970Z,97.35
2023-10-06T06:04:36.443Z,95.51
2023-10-06T06:07:05.818Z,95.89
2023-10-06T06:09:35.771Z,95.28
2023-10-06T06:12:04.502Z,94.55
2023-10-06T06:14:34.904Z,94.36
2023-10-06T06:17:03.537Z,95.11
2023-10-06T06:19:33.358Z,95.27
2023-10-06T06:22:07.048Z,95.67
2023-10-06T06:24:39.418Z,96.08
2023-10-06T06:27:07.987Z,97.10
2023-10-06T06:29:36.485Z,95.93
2023-10-06T06:32:13.173Z,96.36
2023-10-06T06:34:43.050Z,95.75
2023-10-06T06:37:11.813Z,95.46
2023-10-06T06:39:45.832Z,95.38
2023-10-06T06:42:15.397Z,94.73
2023-10-06T06:44:49.416Z,95.03
2023-10-06T06:47:18.748Z,96.35
2023-10-06T06:49:49.789Z,97.89
2023-10-06T06:52:23.406Z,99.11
2023-10-06T06:54:53.519Z,100.00
2023-10-06T06:57:22.870Z,100.00
2023-10-06T06:59:51.435Z,98.50
2023-10-06T07:02:21.599Z,98.35
2023-10-06T07:04:50.488Z,98.38
2023-10-06T07:07:19.007Z,99.34
2023-10-06T07:09:47.912Z,98.23
2023-10-06T07:12:19.758Z,97.83
2023-10-06T07:14:48.398Z,98.48
2023-10-06T07:17:17.114Z,99.26
2023-10-06T07:19:45.755Z,99.67
2023-10-06T07:22:14.583Z,100.00
2023-10-06T07:24:43.373Z,100.00
2023-10-06T07:27:12.427Z,99.87
2023-10-06T07:29:42.319Z,100.00
2023-10-06T07:32:11.997Z,100.00
2023-10-06T07:34:40.749Z,100.00
2023-10-06T07:37:09.244Z,100.00
2023-10-06T07:39:37.962Z,100.00
2023-10-06T07:42:08.129Z,100.00
2023-10-06T07:44:37.106Z,100.00
2023-10-06T07:47:07.695Z,100.00
2023-10-06T07:49:36.825Z,100.00
2023-10-06T07:52:06.176Z,100.00
2023-10-06T07:54:35.067Z,100.00
2023-10-06T07:57:03.579Z,100.00
2023-10-06T07:59:32.206Z,100.00
2023-10-06T08:02:00.772Z,100.00
2023-10-06T08:04:30.650Z,100.00
2023-10-06T08:06:59.744Z,100.00
2023-10-06T08:09:28.589Z,100.00
2023-10-06T08:11:57.090Z,100.00
2023-10-06T08:14:26.216Z,100.00
2023-10-06T08:16:56.239Z,100.00
2023-10-06T08:19:24.777Z,100.00
2023-10-06T08:21:57.085Z,100.00
2023-10-06T08:24:27.346Z,100.00
2023-10-06T08:26:55.855Z,97.79
2023-10-06T08:29:24.559Z,94.55
2023-10-06T08:31:54.999Z,92.90
2023-10-06T08:34:23.549Z,91.13
2023-10-06T08:36:53.638Z,88.98
2023-10-06T08:39:22.963Z,89.06
2023-10-06T08:41:54.907Z,86.75
2023-10-06T08:44:24.297Z,87.46
2023-10-06T08:46:54.494Z,84.30
2023-10-06T08:49:23.405Z,81.63
2023-10-06T08:51:54.395Z,86.37
2023-10-06T08:54:24.044Z,87.94
2023-10-06T08:56:52.748Z,86.56
2023-10-06T08:59:21.754Z,86.95
2023-10-06T09:01:50.416Z,86.57
2023-10-06T09:04:20.907Z,83.59
2023-10-06T09:07:10.341Z,86.19
2023-10-06T09:09:39.061Z,91.00
2023-10-06T09:12:09.119Z,89.00
2023-10-06T09:14:55.759Z,90.61
2023-10-06T09:17:33.093Z,92.87
2023-10-06T09:20:08.242Z,96.43
2023-10-06T09:22:51.292Z,97.62
2023-10-06T09:25:22.754Z,95.97
2023-10-06T09:28:03.133Z,93.69
2023-10-06T09:30:32.199Z,94.22
2023-10-06T09:33:06.055Z,92.08
2023-10-06T09:35:34.745Z,90.29
2023-10-06T09:38:15.054Z,94.03
2023-10-06T09:40:44.940Z,93.27
2023-10-06T09:43:20.284Z,92.96
2023-10-06T09:45:54.034Z,93.69
2023-10-06T09:48:35.001Z,90.71
2023-10-06T09:51:08.619Z,90.87
2023-10-06T09:53:40.491Z,88.78
2023-10-06T09:56:12.585Z,90.11
2023-10-06T09:58:43.722Z,89.59
2023-10-06T10:01:12.776Z,86.73
2023-10-06T10:03:43.038Z,86.15
2023-10-06T10:06:15.393Z,86.10
2023-10-06T10:08:45.548Z,80.74
2023-10-06T10:11:17.892Z,80.22
2023-10-06T10:14:19.946Z,80.01
2023-10-06T10:17:09.125Z,78.01
2023-10-06T10:19:38.858Z,77.05
2023-10-06T10:22:08.052Z,73.40
2023-10-06T10:25:05.496Z,72.95
2023-10-06T10:27:27.529Z,71.75
2023-10-06T10:29:56.061Z,68.97
2023-10-06T10:32:26.001Z,72.03
2023-10-06T10:35:16.506Z,69.46
2023-10-06T10:37:57.352Z,64.01
2023-10-06T10:40:29.979Z,64.37
2023-10-06T10:43:06.922Z,65.62
2023-10-06T10:45:39.271Z,60.15
2023-10-06T10:48:14.846Z,58.99
2023-10-06T10:51:07.147Z,58.40
2023-10-06T10:53:38.677Z,56.54
2023-10-06T10:56:14.388Z,61.50
2023-10-06T10:58:59.610Z,55.02
2023-10-06T11:01:33.154Z,53.00
2023-10-06T11:04:27.287Z,53.76
2023-10-06T11:06:57.438Z,45.71
2023-10-06T11:09:30.586Z,47.03
2023-10-06T11:12:23.190Z,42.84
2023-10-06T11:14:53.800Z,46.48
2023-10-06T11:17:24.105Z,50.65
2023-10-06T11:20:09.951Z,47.48
2023-10-06T11:22:38.805Z,49.84
2023-10-06T11:25:11.714Z,48.81
2023-10-06T11:27:42.960Z,46.77
2023-10-06T11:30:16.439Z,44.50
2023-10-06T11:32:45.190Z,46.47
2023-10-06T11:35:14.222Z,37.14
2023-10-06T11:37:43.492Z,44.36
2023-10-06T11:40:14.064Z,40.55
2023-10-06T11:42:45.216Z,39.18
2023-10-06T11:45:29.195Z,45.70
2023-10-06T11:47:59.433Z,39.86
2023-10-06T11:50:33.681Z,47.51
2023-10-06T11:53:03.036Z,49.40
2023-10-06T11:55:35.582Z,43.98
2023-10-06T11:58:07.490Z,38.67
2023-10-06T12:00:42.819Z,37.69
2023-10-06T12:03:18.041Z,40.97
2023-10-06T12:05:57.625Z,44.19
2023-10-06T12:08:26.561Z,41.48
2023-10-06T12:11:05.080Z,31.04
2023-10-06T12:13:38.124Z,34.79
2023-10-06T12:16:13.948Z,42.22
2023-10-06T12:18:45.056Z,37.67
2023-10-06T12:21:15.663Z,40.29
2023-10-06T12:23:44.559Z,37.94
2023-10-06T12:26:13.645Z,39.94
2023-10-06T12:28:43.911Z,39.09
2023-10-06T12:31:13.698Z,37.70
2023-10-06T12:33:42.389Z,44.73
2023-10-06T12:36:13.361Z,37.00
2023-10-06T12:38:45.215Z,46.29
2023-10-06T12:41:14.142Z,40.29
2023-10-06T12:43:48.831Z,36.88
2023-10-06T12:46:19.539Z,39.74
2023-10-06T12:48:48.539Z,37.35
2023-10-06T12:51:17.579Z,39.85
2023-10-06T12:53:46.149Z,37.37
2023-10-06T12:56:14.766Z,40.77
2023-10-06T12:58:44.639Z,38.65
2023-10-06T13:01:13.264Z,37.88
2023-10-06T13:03:42.319Z,37.06
2023-10-06T13:06:14.029Z,40.35
2023-10-06T13:08:42.810Z,38.95
2023-10-06T13:11:12.234Z,41.27
2023-10-06T13:13:41.014Z,38.43
2023-10-06T13:16:11.542Z,41.20
2023-10-06T13:18:40.170Z,43.20
2023-10-06T13:21:10.054Z,40.12
2023-10-06T13:23:39.289Z,38.41
2023-10-06T13:26:11.181Z,37.88
2023-10-06T13:28:43.654Z,38.34
2023-10-06T13:31:13.696Z,40.05
2023-10-06T13:33:42.780Z,40.88
2023-10-06T13:36:12.437Z,38.60
2023-10-06T13:38:41.431Z,38.95
2023-10-06T13:41:10.147Z,43.99
2023-10-06T13:43:38.696Z,42.60
2023-10-06T13:46:07.796Z,41.60
2023-10-06T13:48:39.236Z,41.73
2023-10-06T13:51:09.977Z,41.23
2023-10-06T13:53:39.105Z,39.13
2023-10-06T13:56:07.692Z,42.14
2023-10-06T13:58:36.396Z,42.19
2023-10-06T14:01:05.820Z,44.12
2023-10-06T14:03:34.765Z,44.16
2023-10-06T14:06:05.869Z,43.82
2023-10-06T14:08:34.730Z,42.39
2023-10-06T14:11:04.178Z,41.51
2023-10-06T14:13:34.883Z,43.62
2023-10-06T14:16:10.874Z,43.91
2023-10-06T14:18:41.653Z,44.88
2023-10-06T14:21:14.764Z,47.49
2023-10-06T14:23:47.367Z,45.25
2023-10-06T14:26:16.244Z,47.43
2023-10-06T14:28:45.713Z,45.08
2023-10-06T14:31:25.686Z,45.40
2023-10-06T14:34:20.042Z,47.69
2023-10-06T14:36:58.899Z,49.76
2023-10-06T14:39:44.895Z,51.40
2023-10-06T14:42:30.686Z,50.96
2023-10-06T14:45:17.073Z,53.56
2023-10-06T14:47:45.657Z,55.89
2023-10-06T14:50:14.964Z,52.75
2023-10-06T14:52:44.977Z,51.96
2023-10-06T14:55:13.664Z,54.30
2023-10-06T14:57:42.181Z,52.87
2023-10-06T15:00:15.008Z,54.55
2023-10-06T15:02:48.864Z,55.73
2023-10-06T15:05:17.900Z,56.06
2023-10-06T15:07:48.734Z,56.15
2023-10-06T15:10:19.716Z,55.24
2023-10-06T15:12:49.661Z,57.04
2023-10-06T15:15:19.210Z,55.94
2023-10-06T15:18:00.557Z,55.36
2023-10-06T15:20:36.500Z,54.01
2023-10-06T15:23:07.003Z,56.80
2023-10-06T15:25:35.532Z,59.46
2023-10-06T15:28:04.673Z,54.85
2023-10-06T15:30:37.265Z,56.65
2023-10-06T15:33:06.514Z,54.08
2023-10-06T15:35:37.307Z,57.06
2023-10-06T15:38:12.043Z,58.06
2023-10-06T15:40:40.757Z,58.51
2023-10-06T15:43:19.855Z,62.36
2023-10-06T15:46:00.141Z,61.06
2023-10-06T15:48:29.337Z,65.75
2023-10-06T15:50:59.640Z,63.57
2023-10-06T15:53:30.646Z,65.56
2023-10-06T15:56:04.884Z,67.73
2023-10-06T15:58:34.032Z,69.06
2023-10-06T16:01:06.704Z,68.99
2023-10-06T16:03:35.669Z,69.62
2023-10-06T16:06:05.409Z,68.95
2023-10-06T16:08:35.382Z,69.49
2023-10-06T16:11:08.151Z,70.79
2023-10-06T16:13:37.065Z,72.16
2023-10-06T16:16:12.281Z,72.80
2023-10-06T16:18:42.588Z,71.60
2023-10-06T16:21:13.076Z,72.90
2023-10-06T16:23:44.191Z,73.54
2023-10-06T16:26:13.981Z,72.11
2023-10-06T16:28:42.626Z,72.67
2023-10-06T16:31:12.179Z,72.40
2023-10-06T16:33:42.521Z,75.00
2023-10-06T16:36:13.165Z,76.88
2023-10-06T16:38:43.367Z,73.69
2023-10-06T16:41:13.738Z,74.50
2023-10-06T16:43:42.996Z,76.40
2023-10-06T16:46:12.186Z,75.62
2023-10-06T16:48:40.928Z,76.43
2023-10-06T16:51:10.362Z,77.57
2023-10-06T16:53:39.351Z,78.52
2023-10-06T16:56:09.776Z,79.07
2023-10-06T16:58:38.578Z,79.14
2023-10-06T17:01:09.147Z,79.96
2023-10-06T17:03:38.690Z,80.97
2023-10-06T17:06:09.099Z,79.82
2023-10-06T17:08:37.868Z,80.11
2023-10-06T17:11:16.946Z,79.40
2023-10-06T17:13:48.831Z,79.14
2023-10-06T17:16:17.751Z,80.38
2023-10-06T17:18:46.320Z,78.74
2023-10-06T17:21:15.701Z,81.08
2023-10-06T17:23:45.967Z,80.24
2023-10-06T17:26:16.412Z,77.53
2023-10-06T17:28:45.464Z,82.74
2023-10-06T17:31:17.785Z,79.56
2023-10-06T17:33:46.516Z,82.45
2023-10-06T17:36:15.058Z,82.16
2023-10-06T17:38:44.281Z,83.39
2023-10-06T17:41:16.673Z,81.64
2023-10-06T17:43:47.946Z,84.10
2023-10-06T17:46:17.434Z,81.55
2023-10-06T17:48:48.370Z,80.71
2023-10-06T17:51:20.560Z,82.11
2023-10-06T17:53:50.187Z,82.17
2023-10-06T17:56:19.200Z,80.76
2023-10-06T17:58:51.255Z,83.24
2023-10-06T18:01:20.512Z,81.28
2023-10-06T18:03:49.859Z,84.15
2023-10-06T18:06:18.933Z,82.24
2023-10-06T18:08:50.026Z,81.59
2023-10-06T18:11:18.905Z,80.94
2023-10-06T18:13:48.838Z,81.49
2023-10-06T18:16:17.767Z,81.88
2023-10-06T18:18:46.605Z,82.29
2023-10-06T18:21:15.112Z,82.44
2023-10-06T18:23:44.115Z,80.76
2023-10-06T18:26:14.593Z,79.54
2023-10-06T18:28:43.573Z,81.88
2023-10-06T18:31:15.047Z,81.02
2023-10-06T18:33:44.106Z,80.46
2023-10-06T18:36:13.237Z,80.39
2023-10-06T18:38:44.434Z,80.53
2023-10-06T18:41:14.202Z,80.47
2023-10-06T18:43:43.879Z,80.25
2023-10-06T18:46:16.022Z,83.26
2023-10-06T18:48:45.321Z,83.66
2023-10-06T18:51:13.829Z,81.45
2023-10-06T18:53:42.507Z,81.74
2023-10-06T18:56:13.859Z,80.95
2023-10-06T18:58:42.422Z,81.30
2023-10-06T19:01:11.686Z,80.72
2023-10-06T19:03:42.987Z,83.08
2023-10-06T19:06:18.142Z,83.41
2023-10-06T19:08:51.538Z,81.81
2023-10-06T19:11:21.484Z,82.24
2023-10-06T19:13:50.848Z,81.11
2023-10-06T19:16:21.230Z,83.53
2023-10-06T19:18:52.689Z,81.49
2023-10-06T19:21:22.395Z,83.16
2023-10-06T19:23:51.513Z,84.72
2023-10-06T19:26:21.092Z,82.51
2023-10-06T19:28:49.993Z,83.54
2023-10-06T19:31:19.785Z,81.81
2023-10-06T19:33:51.362Z,83.38
2023-10-06T19:36:21.838Z,85.46
2023-10-06T19:38:51.987Z,83.29
2023-10-06T19:41:22.895Z,82.83
2023-10-06T19:43:51.653Z,82.68
2023-10-06T19:46:20.546Z,81.99
2023-10-06T19:48:54.664Z,83.28
2023-10-06T19:51:25.949Z,82.15
2023-10-06T19:53:54.508Z,83.22
2023-10-06T19:56:25.311Z,83.13
2023-10-06T19:58:55.160Z,84.61
2023-10-06T20:01:25.877Z,83.36
2023-10-06T20:03:55.012Z,82.98
2023-10-06T20:06:24.924Z,83.29
2023-10-06T20:08:54.070Z,85.34
2023-10-06T20:11:22.819Z,84.23
2023-10-06T20:13:51.388Z,82.67
2023-10-06T20:16:20.087Z,84.04
2023-10-06T20:18:48.642Z,84.33
2023-10-06T20:21:18.920Z,83.75
2023-10-06T20:23:52.525Z,83.80
2023-10-06T20:26:21.400Z,82.66
2023-10-06T20:28:50.322Z,83.26
2023-10-06T20:31:19.168Z,83.56
2023-10-06T20:33:47.794Z,83.54
2023-10-06T20:36:16.712Z,83.62
2023-10-06T20:38:45.330Z,83.94
2023-10-06T20:41:15.639Z,85.48
2023-10-06T20:43:44.294Z,84.02
2023-10-06T20:46:15.741Z,84.71
2023-10-06T20:48:44.378Z,85.23
2023-10-06T20:51:17.596Z,83.95
2023-10-06T20:53:46.188Z,84.99
2023-10-06T20:56:17.824Z,83.80
2023-10-06T20:58:46.409Z,85.54
2023-10-06T21:01:15.667Z,84.45
2023-10-06T21:03:44.313Z,84.13
2023-10-06T21:06:13.890Z,86.44
2023-10-06T21:08:42.467Z,86.34
2023-10-06T21:11:12.864Z,87.66
2023-10-06T21:13:43.210Z,85.82
2023-10-06T21:16:12.037Z,86.93
2023-10-06T21:18:40.552Z,85.06
2023-10-06T21:21:09.070Z,86.43
2023-10-06T21:23:37.597Z,86.54
2023-10-06T21:26:06.368Z,87.46
2023-10-06T21:28:35.092Z,84.94
2023-10-06T21:31:07.829Z,86.94
2023-10-06T21:33:37.012Z,88.30
2023-10-06T21:36:06.721Z,85.31
2023-10-06T21:38:36.210Z,86.30
2023-10-06T21:41:04.834Z,84.46
2023-10-06T21:43:34.068Z,83.30
2023-10-06T21:46:04.822Z,85.50
2023-10-06T21:48:36.614Z,85.94
2023-10-06T21:51:07.605Z,87.63
2023-10-06T21:53:36.320Z,86.13
2023-10-06T21:56:12.976Z,85.76
2023-10-06T21:58:42.157Z,86.47
2023-10-06T22:01:14.872Z,86.10
2023-10-06T22:03:46.733Z,88.21
2023-10-06T22:06:15.426Z,86.28
2023-10-06T22:08:43.993Z,86.92
2023-10-06T22:11:15.589Z,86.69
2023-10-06T22:13:46.072Z,86.68
2023-10-06T22:16:14.944Z,86.34
2023-10-06T22:18:45.898Z,86.92
2023-10-06T22:21:17.033Z,86.25
2023-10-06T22:23:47.190Z,88.15
2023-10-06T22:26:15.974Z,88.50
2023-10-06T22:28:44.852Z,88.02
2023-10-06T22:31:13.423Z,89.25
2023-10-06T22:33:42.334Z,89.45
2023-10-06T22:36:14.787Z,87.06
2023-10-06T22:38:43.544Z,89.32
2023-10-06T22:41:18.401Z,88.02
2023-10-06T22:43:47.333Z,89.51
2023-10-06T22:46:16.750Z,87.43
2023-10-06T22:48:47.974Z,87.88
2023-10-06T22:51:19.482Z,89.20
2023-10-06T22:53:49.152Z,88.48
2023-10-06T22:56:17.868Z,87.05
2023-10-06T22:58:46.472Z,88.58
2023-10-06T23:01:18.417Z,88.81
2023-10-06T23:03:47.813Z,88.47
2023-10-06T23:06:18.678Z,86.35
2023-10-06T23:08:47.846Z,85.85
2023-10-06T23:11:18.134Z,89.45
2023-10-06T23:13:46.796Z,87.66
2023-10-06T23:16:15.408Z,90.59
2023-10-06T23:18:47.011Z,89.55
2023-10-06T23:21:17.246Z,90.22
2023-10-06T23:23:48.338Z,88.85
2023-10-06T23:26:17.075Z,87.71
2023-10-06T23:28:47.477Z,87.90
2023-10-06T23:31:17.134Z,89.73
2023-10-06T23:33:45.702Z,90.16
2023-10-06T23:36:14.400Z,88.64
2023-10-06T23:38:44.715Z,88.41
2023-10-06T23:41:13.772Z,92.25
2023-10-06T23:43:43.202Z,88.34
2023-10-06T23:46:16.661Z,91.16
2023-10-06T23:48:47.768Z,88.85
2023-10-06T23:51:17.430Z,91.90
2023-10-06T23:53:47.522Z,89.07
2023-10-06T23:56:26.551Z,89.85
2023-10-06T23:58:55.713Z,89.31
